sensor_id;sensor_type;location;lat;lon;timestamp;P1;durP1;ratioP1;P2;durP2;ratioP2
13368;SDS011;6753;52.520;13.450;2023-12-20T00:00:10;367.80;;;122.28;;
13368;SDS011;6753;52.520;13.450;2023-12-20T00:00:21;360.67;;;119.68;;
13368;SDS011;6753;52.520;13.450;2023-12-20T00:00:32;364.52;;;119.70;;
13368;SDS011;6753;52.520;13.450;2023-12-20T00:00:43;369.65;;;119.55;;
13368;SDS011;6753;52.520;13.450;2023-12-20T00:00:54;364.67;;;117.80;;
13368;SDS011;6753;52.520;13.450;2023-12-20T00:01:05;363.77;;;116.00;;
13368;SDS011;6753;52.520;13.450;2023-12-20T00:01:15;360.95;;;114.85;;
13368;SDS011;6753;52.520;13.450;2023-12-20T00:01:26;360.30;;;113.60;;
13368;SDS011;6753;52.520;13.450;2023-12-20T00:01:38;359.30;;;114.10;;
13368;SDS011;6753;52.520;13.450;2023-12-20T00:01:49;357.00;;;114.13;;
13368;SDS011;6753;52.520;13.450;2023-12-20T00:02:02;358.50;;;115.97;;
13368;SDS011;6753;52.520;13.450;2023-12-20T00:02:13;360.98;;;115.93;;
13368;SDS011;6753;52.520;13.450;2023-12-20T00:02:24;363.15;;;116.55;;
13368;SDS011;6753;52.520;13.450;2023-12-20T00:02:35;363.77;;;117.18;;
13368;SDS011;6753;52.520;13.450;2023-12-20T00:02:46;370.52;;;119.00;;
13368;SDS011;6753;52.520;13.450;2023-12-20T00:02:56;365.90;;;118.03;;
13368;SDS011;6753;52.520;13.450;2023-12-20T00:03:08;367.65;;;117.10;;
13368;SDS011;6753;52.520;13.450;2023-12-20T00:03:20;364.75;;;117.30;;
13368;SDS011;6753;52.520;13.450;2023-12-20T00:03:30;362.20;;;116.40;;
13368;SDS011;6753;52.520;13.450;2023-12-20T00:03:41;364.85;;;115.65;;
13368;SDS011;6753;52.520;13.450;2023-12-20T00:03:52;361.73;;;114.00;;
13368;SDS011;6753;52.520;13.450;2023-12-20T00:04:03;366.90;;;114.27;;
13368;SDS011;6753;52.520;13.450;2023-12-20T00:04:13;358.90;;;113.28;;
13368;SDS011;6753;52.520;13.450;2023-12-20T00:04:24;357.60;;;112.82;;
13368;SDS011;6753;52.520;13.450;2023-12-20T00:04:35;348.60;;;110.10;;
13368;SDS011;6753;52.520;13.450;2023-12-20T00:04:46;346.58;;;109.25;;
13368;SDS011;6753;52.520;13.450;2023-12-20T00:04:57;342.60;;;107.80;;
13368;SDS011;6753;52.520;13.450;2023-12-20T00:05:07;342.27;;;107.07;;
13368;SDS011;6753;52.520;13.450;2023-12-20T00:05:18;341.17;;;106.15;;
13368;SDS011;6753;52.520;13.450;2023-12-20T00:05:29;336.95;;;106.20;;
13368;SDS011;6753;52.520;13.450;2023-12-20T00:05:42;337.38;;;106.65;;
13368;SDS011;6753;52.520;13.450;2023-12-20T00:05:53;329.63;;;105.90;;
13368;SDS011;6753;52.520;13.450;2023-12-20T00:06:05;338.02;;;108.53;;
13368;SDS011;6753;52.520;13.450;2023-12-20T00:06:16;346.52;;;111.10;;
13368;SDS011;6753;52.520;13.450;2023-12-20T00:06:27;348.10;;;110.37;;
13368;SDS011;6753;52.520;13.450;2023-12-20T00:06:37;353.65;;;111.13;;
13368;SDS011;6753;52.520;13.450;2023-12-20T00:06:48;358.92;;;112.50;;
13368;SDS011;6753;52.520;13.450;2023-12-20T00:06:59;359.10;;;112.73;;
13368;SDS011;6753;52.520;13.450;2023-12-20T00:07:10;342.75;;;108.30;;
13368;SDS011;6753;52.520;13.450;2023-12-20T00:07:20;336.38;;;106.78;;
13368;SDS011;6753;52.520;13.450;2023-12-20T00:07:31;336.52;;;107.47;;
13368;SDS011;6753;52.520;13.450;2023-12-20T00:07:42;327.00;;;105.60;;
13368;SDS011;6753;52.520;13.450;2023-12-20T00:07:53;314.30;;;102.50;;
13368;SDS011;6753;52.520;13.450;2023-12-20T00:08:04;311.77;;;101.95;;
13368;SDS011;6753;52.520;13.450;2023-12-20T00:08:16;305.53;;;101.37;;
13368;SDS011;6753;52.520;13.450;2023-12-20T00:08:27;302.30;;;99.93;;
13368;SDS011;6753;52.520;13.450;2023-12-20T00:08:38;307.50;;;101.53;;
13368;SDS011;6753;52.520;13.450;2023-12-20T00:08:49;322.77;;;106.10;;
13368;SDS011;6753;52.520;13.450;2023-12-20T00:08:59;331.98;;;108.28;;
13368;SDS011;6753;52.520;13.450;2023-12-20T00:09:10;344.63;;;111.13;;
13368;SDS011;6753;52.520;13.450;2023-12-20T00:09:21;355.52;;;113.75;;
13368;SDS011;6753;52.520;13.450;2023-12-20T00:09:32;357.23;;;116.57;;
13368;SDS011;6753;52.520;13.450;2023-12-20T00:09:42;352.40;;;114.60;;
13368;SDS011;6753;52.520;13.450;2023-12-20T00:09:53;349.90;;;114.47;;
13368;SDS011;6753;52.520;13.450;2023-12-20T00:10:04;353.02;;;115.75;;
13368;SDS011;6753;52.520;13.450;2023-12-20T00:10:17;351.63;;;115.82;;
13368;SDS011;6753;52.520;13.450;2023-12-20T00:10:28;339.75;;;113.40;;
13368;SDS011;6753;52.520;13.450;2023-12-20T00:10:38;330.95;;;111.28;;
13368;SDS011;6753;52.520;13.450;2023-12-20T00:10:49;335.70;;;111.17;;
13368;SDS011;6753;52.520;13.450;2023-12-20T00:11:00;328.98;;;109.32;;
13368;SDS011;6753;52.520;13.450;2023-12-20T00:11:11;329.33;;;110.22;;
13368;SDS011;6753;52.520;13.450;2023-12-20T00:11:21;332.47;;;111.00;;
13368;SDS011;6753;52.520;13.450;2023-12-20T00:11:32;333.88;;;110.95;;
13368;SDS011;6753;52.520;13.450;2023-12-20T00:11:43;345.27;;;113.50;;
13368;SDS011;6753;52.520;13.450;2023-12-20T00:11:54;347.45;;;115.47;;
13368;SDS011;6753;52.520;13.450;2023-12-20T00:12:05;347.00;;;114.13;;
13368;SDS011;6753;52.520;13.450;2023-12-20T00:12:16;341.75;;;112.68;;
13368;SDS011;6753;52.520;13.450;2023-12-20T00:12:27;344.30;;;113.70;;
13368;SDS011;6753;52.520;13.450;2023-12-20T00:12:40;341.42;;;113.18;;
13368;SDS011;6753;52.520;13.450;2023-12-20T00:12:51;340.80;;;112.63;;
13368;SDS011;6753;52.520;13.450;2023-12-20T00:13:02;343.83;;;114.60;;
13368;SDS011;6753;52.520;13.450;2023-12-20T00:13:12;347.02;;;116.00;;
13368;SDS011;6753;52.520;13.450;2023-12-20T00:13:23;359.67;;;120.32;;
13368;SDS011;6753;52.520;13.450;2023-12-20T00:13:34;399.50;;;139.55;;
13368;SDS011;6753;52.520;13.450;2023-12-20T00:13:45;446.63;;;163.40;;
13368;SDS011;6753;52.520;13.450;2023-12-20T00:13:55;460.43;;;159.73;;
13368;SDS011;6753;52.520;13.450;2023-12-20T00:14:07;444.58;;;152.57;;
13368;SDS011;6753;52.520;13.450;2023-12-20T00:14:18;448.27;;;156.00;;
13368;SDS011;6753;52.520;13.450;2023-12-20T00:14:29;441.90;;;152.80;;
13368;SDS011;6753;52.520;13.450;2023-12-20T00:14:39;430.73;;;147.87;;
13368;SDS011;6753;52.520;13.450;2023-12-20T00:14:50;436.50;;;150.27;;
13368;SDS011;6753;52.520;13.450;2023-12-20T00:15:02;453.98;;;159.52;;
13368;SDS011;6753;52.520;13.450;2023-12-20T00:15:13;444.13;;;154.38;;
13368;SDS011;6753;52.520;13.450;2023-12-20T00:15:24;428.95;;;150.23;;
13368;SDS011;6753;52.520;13.450;2023-12-20T00:15:35;425.77;;;148.07;;
13368;SDS011;6753;52.520;13.450;2023-12-20T00:15:46;410.47;;;141.07;;
13368;SDS011;6753;52.520;13.450;2023-12-20T00:15:57;393.25;;;132.80;;
13368;SDS011;6753;52.520;13.450;2023-12-20T00:16:11;381.63;;;127.95;;
13368;SDS011;6753;52.520;13.450;2023-12-20T00:16:22;390.33;;;128.63;;
13368;SDS011;6753;52.520;13.450;2023-12-20T00:16:32;385.48;;;126.82;;
13368;SDS011;6753;52.520;13.450;2023-12-20T00:16:43;384.02;;;127.53;;
13368;SDS011;6753;52.520;13.450;2023-12-20T00:16:54;385.00;;;126.40;;
13368;SDS011;6753;52.520;13.450;2023-12-20T00:17:05;392.38;;;126.60;;
13368;SDS011;6753;52.520;13.450;2023-12-20T00:17:15;382.20;;;124.55;;
13368;SDS011;6753;52.520;13.450;2023-12-20T00:17:26;388.70;;;125.70;;
13368;SDS011;6753;52.520;13.450;2023-12-20T00:17:37;398.03;;;127.73;;
13368;SDS011;6753;52.520;13.450;2023-12-20T00:17:48;408.35;;;132.45;;
13368;SDS011;6753;52.520;13.450;2023-12-20T00:17:58;412.08;;;135.73;;
13368;SDS011;6753;52.520;13.450;2023-12-20T00:18:09;423.40;;;140.00;;
13368;SDS011;6753;52.520;13.450;2023-12-20T00:18:21;431.35;;;143.95;;
13368;SDS011;6753;52.520;13.450;2023-12-20T00:18:32;439.55;;;148.07;;
13368;SDS011;6753;52.520;13.450;2023-12-20T00:18:42;438.25;;;148.25;;
13368;SDS011;6753;52.520;13.450;2023-12-20T00:18:53;436.43;;;147.13;;
13368;SDS011;6753;52.520;13.450;2023-12-20T00:19:04;446.08;;;150.15;;
13368;SDS011;6753;52.520;13.450;2023-12-20T00:19:14;452.52;;;152.88;;
13368;SDS011;6753;52.520;13.450;2023-12-20T00:19:25;443.33;;;148.33;;
13368;SDS011;6753;52.520;13.450;2023-12-20T00:19:36;445.92;;;149.70;;
13368;SDS011;6753;52.520;13.450;2023-12-20T00:19:49;445.38;;;148.43;;
13368;SDS011;6753;52.520;13.450;2023-12-20T00:20:01;433.55;;;143.60;;
13368;SDS011;6753;52.520;13.450;2023-12-20T00:20:12;418.77;;;137.25;;
13368;SDS011;6753;52.520;13.450;2023-12-20T00:20:23;418.10;;;136.65;;
13368;SDS011;6753;52.520;13.450;2023-12-20T00:20:34;418.95;;;137.65;;
13368;SDS011;6753;52.520;13.450;2023-12-20T00:20:44;412.50;;;135.23;;
13368;SDS011;6753;52.520;13.450;2023-12-20T00:20:55;406.23;;;133.32;;
13368;SDS011;6753;52.520;13.450;2023-12-20T00:21:06;402.33;;;133.18;;
13368;SDS011;6753;52.520;13.450;2023-12-20T00:21:16;398.40;;;132.00;;
13368;SDS011;6753;52.520;13.450;2023-12-20T00:21:27;393.93;;;130.73;;
13368;SDS011;6753;52.520;13.450;2023-12-20T00:21:38;386.13;;;125.32;;
13368;SDS011;6753;52.520;13.450;2023-12-20T00:21:49;378.52;;;123.25;;
13368;SDS011;6753;52.520;13.450;2023-12-20T00:22:00;375.48;;;123.30;;
13368;SDS011;6753;52.520;13.450;2023-12-20T00:22:10;388.03;;;129.43;;
13368;SDS011;6753;52.520;13.450;2023-12-20T00:22:22;393.30;;;131.18;;
13368;SDS011;6753;52.520;13.450;2023-12-20T00:22:33;404.10;;;135.55;;
13368;SDS011;6753;52.520;13.450;2023-12-20T00:22:44;419.67;;;141.10;;
13368;SDS011;6753;52.520;13.450;2023-12-20T00:22:55;430.33;;;145.13;;
13368;SDS011;6753;52.520;13.450;2023-12-20T00:23:07;420.05;;;140.13;;
13368;SDS011;6753;52.520;13.450;2023-12-20T00:23:18;421.38;;;140.48;;
13368;SDS011;6753;52.520;13.450;2023-12-20T00:23:29;427.40;;;143.50;;
13368;SDS011;6753;52.520;13.450;2023-12-20T00:23:40;415.10;;;140.33;;
13368;SDS011;6753;52.520;13.450;2023-12-20T00:23:50;408.80;;;137.32;;
13368;SDS011;6753;52.520;13.450;2023-12-20T00:24:01;418.88;;;140.00;;
13368;SDS011;6753;52.520;13.450;2023-12-20T00:24:13;412.08;;;136.48;;
13368;SDS011;6753;52.520;13.450;2023-12-20T00:24:24;400.37;;;130.97;;
13368;SDS011;6753;52.520;13.450;2023-12-20T00:24:34;398.10;;;128.52;;
13368;SDS011;6753;52.520;13.450;2023-12-20T00:24:45;399.48;;;129.07;;
13368;SDS011;6753;52.520;13.450;2023-12-20T00:24:56;413.00;;;134.75;;
13368;SDS011;6753;52.520;13.450;2023-12-20T00:25:07;423.70;;;138.13;;
13368;SDS011;6753;52.520;13.450;2023-12-20T00:25:18;427.42;;;137.20;;
13368;SDS011;6753;52.520;13.450;2023-12-20T00:25:29;427.65;;;137.80;;
13368;SDS011;6753;52.520;13.450;2023-12-20T00:25:39;425.65;;;137.05;;
13368;SDS011;6753;52.520;13.450;2023-12-20T00:25:50;407.80;;;131.15;;
13368;SDS011;6753;52.520;13.450;2023-12-20T00:26:01;394.80;;;126.07;;
13368;SDS011;6753;52.520;13.450;2023-12-20T00:26:13;386.42;;;125.03;;
13368;SDS011;6753;52.520;13.450;2023-12-20T00:26:24;380.27;;;123.82;;
13368;SDS011;6753;52.520;13.450;2023-12-20T00:26:34;373.63;;;121.75;;
13368;SDS011;6753;52.520;13.450;2023-12-20T00:26:45;365.27;;;119.83;;
13368;SDS011;6753;52.520;13.450;2023-12-20T00:26:56;363.77;;;118.35;;
13368;SDS011;6753;52.520;13.450;2023-12-20T00:27:07;354.85;;;113.93;;
13368;SDS011;6753;52.520;13.450;2023-12-20T00:27:18;358.40;;;115.10;;
13368;SDS011;6753;52.520;13.450;2023-12-20T00:27:29;360.83;;;116.30;;
13368;SDS011;6753;52.520;13.450;2023-12-20T00:27:39;377.02;;;120.60;;
13368;SDS011;6753;52.520;13.450;2023-12-20T00:27:50;387.60;;;122.88;;
13368;SDS011;6753;52.520;13.450;2023-12-20T00:28:01;381.45;;;122.03;;
13368;SDS011;6753;52.520;13.450;2023-12-20T00:28:13;376.85;;;120.60;;
13368;SDS011;6753;52.520;13.450;2023-12-20T00:28:24;385.47;;;124.00;;
13368;SDS011;6753;52.520;13.450;2023-12-20T00:28:35;393.50;;;126.55;;
13368;SDS011;6753;52.520;13.450;2023-12-20T00:28:46;389.02;;;127.53;;
13368;SDS011;6753;52.520;13.450;2023-12-20T00:28:57;398.73;;;130.25;;
13368;SDS011;6753;52.520;13.450;2023-12-20T00:29:07;423.93;;;137.17;;
13368;SDS011;6753;52.520;13.450;2023-12-20T00:29:18;420.75;;;136.85;;
13368;SDS011;6753;52.520;13.450;2023-12-20T00:29:29;401.50;;;130.40;;
13368;SDS011;6753;52.520;13.450;2023-12-20T00:29:39;383.55;;;123.75;;
13368;SDS011;6753;52.520;13.450;2023-12-20T00:29:52;362.85;;;115.25;;
13368;SDS011;6753;52.520;13.450;2023-12-20T00:30:05;349.90;;;110.77;;
13368;SDS011;6753;52.520;13.450;2023-12-20T00:30:18;326.45;;;102.95;;
13368;SDS011;6753;52.520;13.450;2023-12-20T00:30:29;325.80;;;102.10;;
13368;SDS011;6753;52.520;13.450;2023-12-20T00:30:40;336.33;;;105.28;;
13368;SDS011;6753;52.520;13.450;2023-12-20T00:30:50;356.10;;;110.87;;
13368;SDS011;6753;52.520;13.450;2023-12-20T00:31:01;357.83;;;112.30;;
13368;SDS011;6753;52.520;13.450;2023-12-20T00:31:12;372.63;;;117.20;;
13368;SDS011;6753;52.520;13.450;2023-12-20T00:31:23;391.17;;;124.68;;
13368;SDS011;6753;52.520;13.450;2023-12-20T00:31:33;398.30;;;128.60;;
13368;SDS011;6753;52.520;13.450;2023-12-20T00:31:44;390.65;;;127.35;;
13368;SDS011;6753;52.520;13.450;2023-12-20T00:31:55;378.80;;;125.72;;
13368;SDS011;6753;52.520;13.450;2023-12-20T00:32:06;380.63;;;127.27;;
13368;SDS011;6753;52.520;13.450;2023-12-20T00:32:17;379.67;;;127.78;;
13368;SDS011;6753;52.520;13.450;2023-12-20T00:32:28;372.08;;;124.72;;
13368;SDS011;6753;52.520;13.450;2023-12-20T00:32:39;389.38;;;127.90;;
13368;SDS011;6753;52.520;13.450;2023-12-20T00:32:56;409.00;;;134.57;;
13368;SDS011;6753;52.520;13.450;2023-12-20T00:33:06;414.45;;;136.10;;
13368;SDS011;6753;52.520;13.450;2023-12-20T00:33:17;428.60;;;142.95;;
13368;SDS011;6753;52.520;13.450;2023-12-20T00:33:28;428.38;;;143.95;;
13368;SDS011;6753;52.520;13.450;2023-12-20T00:33:39;416.00;;;141.73;;
13368;SDS011;6753;52.520;13.450;2023-12-20T00:33:53;419.23;;;141.32;;
13368;SDS011;6753;52.520;13.450;2023-12-20T00:34:04;426.75;;;143.93;;
13368;SDS011;6753;52.520;13.450;2023-12-20T00:34:16;416.40;;;137.93;;
13368;SDS011;6753;52.520;13.450;2023-12-20T00:34:27;425.30;;;140.10;;
13368;SDS011;6753;52.520;13.450;2023-12-20T00:34:37;432.38;;;144.27;;
13368;SDS011;6753;52.520;13.450;2023-12-20T00:34:48;439.02;;;147.20;;
13368;SDS011;6753;52.520;13.450;2023-12-20T00:34:59;437.60;;;148.43;;
13368;SDS011;6753;52.520;13.450;2023-12-20T00:35:10;427.83;;;145.68;;
13368;SDS011;6753;52.520;13.450;2023-12-20T00:35:20;423.40;;;144.60;;
13368;SDS011;6753;52.520;13.450;2023-12-20T00:35:31;411.40;;;139.20;;
13368;SDS011;6753;52.520;13.450;2023-12-20T00:35:42;405.83;;;136.63;;
13368;SDS011;6753;52.520;13.450;2023-12-20T00:35:52;392.80;;;130.40;;
13368;SDS011;6753;52.520;13.450;2023-12-20T00:36:04;385.17;;;128.55;;
13368;SDS011;6753;52.520;13.450;2023-12-20T00:36:16;387.80;;;130.38;;
13368;SDS011;6753;52.520;13.450;2023-12-20T00:36:26;389.55;;;130.93;;
13368;SDS011;6753;52.520;13.450;2023-12-20T00:36:37;395.63;;;132.13;;
13368;SDS011;6753;52.520;13.450;2023-12-20T00:36:48;403.43;;;135.90;;
13368;SDS011;6753;52.520;13.450;2023-12-20T00:36:59;404.05;;;136.20;;
13368;SDS011;6753;52.520;13.450;2023-12-20T00:37:09;405.92;;;136.20;;
13368;SDS011;6753;52.520;13.450;2023-12-20T00:37:20;398.33;;;134.00;;
13368;SDS011;6753;52.520;13.450;2023-12-20T00:37:31;399.48;;;134.82;;
13368;SDS011;6753;52.520;13.450;2023-12-20T00:37:42;401.23;;;136.10;;
13368;SDS011;6753;52.520;13.450;2023-12-20T00:37:53;469.60;;;168.32;;
13368;SDS011;6753;52.520;13.450;2023-12-20T00:38:04;460.63;;;165.63;;
13368;SDS011;6753;52.520;13.450;2023-12-20T00:38:17;461.58;;;166.00;;
13368;SDS011;6753;52.520;13.450;2023-12-20T00:38:27;448.73;;;158.83;;
13368;SDS011;6753;52.520;13.450;2023-12-20T00:38:38;442.80;;;154.65;;
13368;SDS011;6753;52.520;13.450;2023-12-20T00:38:49;427.48;;;145.00;;
13368;SDS011;6753;52.520;13.450;2023-12-20T00:39:01;418.15;;;139.52;;
13368;SDS011;6753;52.520;13.450;2023-12-20T00:39:12;405.98;;;132.55;;
13368;SDS011;6753;52.520;13.450;2023-12-20T00:39:23;389.65;;;127.38;;
13368;SDS011;6753;52.520;13.450;2023-12-20T00:39:34;383.92;;;127.15;;
13368;SDS011;6753;52.520;13.450;2023-12-20T00:39:45;381.25;;;128.50;;
13368;SDS011;6753;52.520;13.450;2023-12-20T00:39:57;368.33;;;125.53;;
13368;SDS011;6753;52.520;13.450;2023-12-20T00:40:08;357.43;;;123.97;;
13368;SDS011;6753;52.520;13.450;2023-12-20T00:40:19;357.98;;;123.78;;
13368;SDS011;6753;52.520;13.450;2023-12-20T00:40:30;356.55;;;120.63;;
13368;SDS011;6753;52.520;13.450;2023-12-20T00:40:41;344.10;;;117.25;;
13368;SDS011;6753;52.520;13.450;2023-12-20T00:40:52;338.58;;;116.00;;
13368;SDS011;6753;52.520;13.450;2023-12-20T00:41:03;346.60;;;115.93;;
13368;SDS011;6753;52.520;13.450;2023-12-20T00:41:13;355.83;;;118.78;;
13368;SDS011;6753;52.520;13.450;2023-12-20T00:41:24;352.80;;;119.10;;
13368;SDS011;6753;52.520;13.450;2023-12-20T00:41:35;356.77;;;120.22;;
13368;SDS011;6753;52.520;13.450;2023-12-20T00:41:47;362.08;;;121.30;;
13368;SDS011;6753;52.520;13.450;2023-12-20T00:41:58;362.17;;;121.97;;
13368;SDS011;6753;52.520;13.450;2023-12-20T00:42:08;350.17;;;119.03;;
13368;SDS011;6753;52.520;13.450;2023-12-20T00:42:19;339.75;;;115.30;;
13368;SDS011;6753;52.520;13.450;2023-12-20T00:42:30;343.90;;;115.20;;
13368;SDS011;6753;52.520;13.450;2023-12-20T00:42:41;350.43;;;116.30;;
13368;SDS011;6753;52.520;13.450;2023-12-20T00:42:51;357.70;;;116.63;;
13368;SDS011;6753;52.520;13.450;2023-12-20T00:43:02;357.55;;;117.30;;
13368;SDS011;6753;52.520;13.450;2023-12-20T00:43:13;362.55;;;117.82;;
13368;SDS011;6753;52.520;13.450;2023-12-20T00:43:24;365.25;;;118.45;;
13368;SDS011;6753;52.520;13.450;2023-12-20T00:43:35;356.57;;;117.43;;
13368;SDS011;6753;52.520;13.450;2023-12-20T00:43:46;348.35;;;114.57;;
13368;SDS011;6753;52.520;13.450;2023-12-20T00:43:57;347.63;;;114.68;;
13368;SDS011;6753;52.520;13.450;2023-12-20T00:44:08;344.57;;;113.07;;
13368;SDS011;6753;52.520;13.450;2023-12-20T00:44:19;344.73;;;111.43;;
13368;SDS011;6753;52.520;13.450;2023-12-20T00:44:29;345.20;;;110.97;;
13368;SDS011;6753;52.520;13.450;2023-12-20T00:44:40;343.65;;;110.32;;
13368;SDS011;6753;52.520;13.450;2023-12-20T00:44:51;337.23;;;108.00;;
13368;SDS011;6753;52.520;13.450;2023-12-20T00:45:02;340.83;;;109.43;;
13368;SDS011;6753;52.520;13.450;2023-12-20T00:45:16;341.40;;;110.38;;
13368;SDS011;6753;52.520;13.450;2023-12-20T00:45:26;336.80;;;108.82;;
13368;SDS011;6753;52.520;13.450;2023-12-20T00:45:37;330.85;;;107.63;;
13368;SDS011;6753;52.520;13.450;2023-12-20T00:45:49;332.25;;;108.50;;
13368;SDS011;6753;52.520;13.450;2023-12-20T00:46:00;320.95;;;105.47;;
13368;SDS011;6753;52.520;13.450;2023-12-20T00:46:10;316.13;;;103.90;;
13368;SDS011;6753;52.520;13.450;2023-12-20T00:46:21;310.60;;;104.13;;
13368;SDS011;6753;52.520;13.450;2023-12-20T00:46:32;318.48;;;106.40;;
13368;SDS011;6753;52.520;13.450;2023-12-20T00:46:43;316.35;;;106.15;;
13368;SDS011;6753;52.520;13.450;2023-12-20T00:46:53;315.63;;;105.37;;
13368;SDS011;6753;52.520;13.450;2023-12-20T00:47:04;313.38;;;104.85;;
13368;SDS011;6753;52.520;13.450;2023-12-20T00:47:15;316.00;;;105.88;;
13368;SDS011;6753;52.520;13.450;2023-12-20T00:47:26;315.95;;;105.35;;
13368;SDS011;6753;52.520;13.450;2023-12-20T00:47:36;317.00;;;106.70;;
13368;SDS011;6753;52.520;13.450;2023-12-20T00:47:47;316.08;;;107.20;;
13368;SDS011;6753;52.520;13.450;2023-12-20T00:47:59;323.15;;;107.55;;
13368;SDS011;6753;52.520;13.450;2023-12-20T00:48:09;319.77;;;106.67;;
13368;SDS011;6753;52.520;13.450;2023-12-20T00:48:20;315.95;;;106.25;;
13368;SDS011;6753;52.520;13.450;2023-12-20T00:48:31;313.98;;;103.35;;
13368;SDS011;6753;52.520;13.450;2023-12-20T00:48:42;315.77;;;102.78;;
13368;SDS011;6753;52.520;13.450;2023-12-20T00:48:55;316.40;;;102.88;;
13368;SDS011;6753;52.520;13.450;2023-12-20T00:49:06;312.42;;;101.10;;
13368;SDS011;6753;52.520;13.450;2023-12-20T00:49:17;312.52;;;100.18;;
13368;SDS011;6753;52.520;13.450;2023-12-20T00:49:27;311.67;;;102.30;;
13368;SDS011;6753;52.520;13.450;2023-12-20T00:49:38;311.35;;;101.95;;
13368;SDS011;6753;52.520;13.450;2023-12-20T00:49:50;304.17;;;101.05;;
13368;SDS011;6753;52.520;13.450;2023-12-20T00:50:01;304.10;;;101.60;;
13368;SDS011;6753;52.520;13.450;2023-12-20T00:50:12;303.85;;;103.43;;
13368;SDS011;6753;52.520;13.450;2023-12-20T00:50:23;304.20;;;102.35;;
13368;SDS011;6753;52.520;13.450;2023-12-20T00:50:34;296.73;;;99.00;;
13368;SDS011;6753;52.520;13.450;2023-12-20T00:50:44;292.95;;;96.88;;
13368;SDS011;6753;52.520;13.450;2023-12-20T00:50:55;296.80;;;98.30;;
13368;SDS011;6753;52.520;13.450;2023-12-20T00:51:06;309.63;;;102.45;;
13368;SDS011;6753;52.520;13.450;2023-12-20T00:51:17;325.80;;;104.90;;
13368;SDS011;6753;52.520;13.450;2023-12-20T00:51:27;338.95;;;110.03;;
13368;SDS011;6753;52.520;13.450;2023-12-20T00:51:38;352.05;;;113.65;;
13368;SDS011;6753;52.520;13.450;2023-12-20T00:51:49;364.60;;;118.80;;
13368;SDS011;6753;52.520;13.450;2023-12-20T00:52:00;366.88;;;118.97;;
13368;SDS011;6753;52.520;13.450;2023-12-20T00:52:12;370.20;;;120.30;;
13368;SDS011;6753;52.520;13.450;2023-12-20T00:52:23;367.60;;;120.13;;
13368;SDS011;6753;52.520;13.450;2023-12-20T00:52:34;370.40;;;122.10;;
13368;SDS011;6753;52.520;13.450;2023-12-20T00:52:45;371.00;;;121.38;;
13368;SDS011;6753;52.520;13.450;2023-12-20T00:52:56;363.17;;;117.50;;
13368;SDS011;6753;52.520;13.450;2023-12-20T00:53:06;355.35;;;116.70;;
13368;SDS011;6753;52.520;13.450;2023-12-20T00:53:17;335.05;;;108.63;;
13368;SDS011;6753;52.520;13.450;2023-12-20T00:53:28;321.70;;;104.87;;
13368;SDS011;6753;52.520;13.450;2023-12-20T00:53:39;315.45;;;105.00;;
13368;SDS011;6753;52.520;13.450;2023-12-20T00:53:50;322.58;;;108.55;;
13368;SDS011;6753;52.520;13.450;2023-12-20T00:54:04;342.02;;;115.18;;
13368;SDS011;6753;52.520;13.450;2023-12-20T00:54:15;350.80;;;120.67;;
13368;SDS011;6753;52.520;13.450;2023-12-20T00:54:26;361.45;;;122.80;;
13368;SDS011;6753;52.520;13.450;2023-12-20T00:54:37;363.92;;;122.13;;
13368;SDS011;6753;52.520;13.450;2023-12-20T00:54:47;361.65;;;122.10;;
13368;SDS011;6753;52.520;13.450;2023-12-20T00:54:58;352.67;;;120.50;;
13368;SDS011;6753;52.520;13.450;2023-12-20T00:55:09;345.65;;;116.55;;
13368;SDS011;6753;52.520;13.450;2023-12-20T00:55:20;347.00;;;116.97;;
13368;SDS011;6753;52.520;13.450;2023-12-20T00:55:31;350.02;;;117.93;;
13368;SDS011;6753;52.520;13.450;2023-12-20T00:55:41;344.33;;;117.70;;
13368;SDS011;6753;52.520;13.450;2023-12-20T00:55:54;357.65;;;120.82;;
13368;SDS011;6753;52.520;13.450;2023-12-20T00:56:05;355.70;;;122.65;;
13368;SDS011;6753;52.520;13.450;2023-12-20T00:56:16;354.90;;;122.80;;
13368;SDS011;6753;52.520;13.450;2023-12-20T00:56:27;351.73;;;122.38;;
13368;SDS011;6753;52.520;13.450;2023-12-20T00:56:37;347.08;;;122.07;;
13368;SDS011;6753;52.520;13.450;2023-12-20T00:56:48;345.80;;;122.70;;
13368;SDS011;6753;52.520;13.450;2023-12-20T00:56:59;354.50;;;122.57;;
13368;SDS011;6753;52.520;13.450;2023-12-20T00:57:11;376.92;;;133.98;;
13368;SDS011;6753;52.520;13.450;2023-12-20T00:57:21;392.50;;;140.20;;
13368;SDS011;6753;52.520;13.450;2023-12-20T00:57:32;398.10;;;142.38;;
13368;SDS011;6753;52.520;13.450;2023-12-20T00:57:43;404.70;;;141.85;;
13368;SDS011;6753;52.520;13.450;2023-12-20T00:57:54;398.27;;;140.40;;
13368;SDS011;6753;52.520;13.450;2023-12-20T00:58:04;387.20;;;136.10;;
13368;SDS011;6753;52.520;13.450;2023-12-20T00:58:15;367.00;;;126.20;;
13368;SDS011;6753;52.520;13.450;2023-12-20T00:58:27;358.75;;;122.60;;
13368;SDS011;6753;52.520;13.450;2023-12-20T00:58:38;353.92;;;122.78;;
13368;SDS011;6753;52.520;13.450;2023-12-20T00:58:49;358.20;;;124.03;;
13368;SDS011;6753;52.520;13.450;2023-12-20T00:58:59;359.42;;;125.13;;
13368;SDS011;6753;52.520;13.450;2023-12-20T00:59:11;363.23;;;125.93;;
13368;SDS011;6753;52.520;13.450;2023-12-20T00:59:22;369.17;;;127.88;;
13368;SDS011;6753;52.520;13.450;2023-12-20T00:59:33;375.40;;;129.97;;
13368;SDS011;6753;52.520;13.450;2023-12-20T00:59:43;372.55;;;127.68;;
13368;SDS011;6753;52.520;13.450;2023-12-20T00:59:54;375.38;;;127.30;;
13368;SDS011;6753;52.520;13.450;2023-12-20T01:00:05;366.03;;;124.70;;
13368;SDS011;6753;52.520;13.450;2023-12-20T01:00:21;355.90;;;122.18;;
13368;SDS011;6753;52.520;13.450;2023-12-20T01:00:31;354.75;;;120.60;;
13368;SDS011;6753;52.520;13.450;2023-12-20T01:00:42;347.98;;;119.13;;
13368;SDS011;6753;52.520;13.450;2023-12-20T01:00:54;338.60;;;116.65;;
13368;SDS011;6753;52.520;13.450;2023-12-20T01:01:08;334.50;;;114.72;;
13368;SDS011;6753;52.520;13.450;2023-12-20T01:01:19;329.70;;;112.88;;
13368;SDS011;6753;52.520;13.450;2023-12-20T01:01:29;318.10;;;110.50;;
13368;SDS011;6753;52.520;13.450;2023-12-20T01:01:40;315.27;;;109.93;;
13368;SDS011;6753;52.520;13.450;2023-12-20T01:01:52;314.23;;;110.53;;
13368;SDS011;6753;52.520;13.450;2023-12-20T01:02:02;314.45;;;109.55;;
13368;SDS011;6753;52.520;13.450;2023-12-20T01:02:13;317.27;;;109.15;;
13368;SDS011;6753;52.520;13.450;2023-12-20T01:02:24;312.88;;;106.80;;
13368;SDS011;6753;52.520;13.450;2023-12-20T01:02:35;307.70;;;106.00;;
13368;SDS011;6753;52.520;13.450;2023-12-20T01:02:46;301.55;;;103.68;;